createdAt,value
2022-11-16T00:01:19.397Z,70.68
2022-11-16T00:03:47.463Z,71.68
2022-11-16T00:06:15.124Z,66.93
2022-11-16T00:08:45.595Z,67.80
2022-11-16T00:11:15.863Z,74.80
2022-11-16T00:13:43.747Z,66.78
2022-11-16T00:16:18.172Z,69.25
2022-11-16T00:18:45.723Z,68.32
2022-11-16T00:21:13.246Z,66.20
2022-11-16T00:23:40.528Z,67.43
2022-11-16T00:26:09.382Z,66.97
2022-11-16T00:28:36.734Z,64.90
2022-11-16T00:31:06.542Z,63.45
2022-11-16T00:33:34.564Z,60.40
2022-11-16T00:36:03.266Z,62.65
2022-11-16T00:38:30.978Z,60.38
2022-11-16T00:40:58.856Z,64.85
2022-11-16T00:43:26.722Z,60.17
2022-11-16T00:45:54.105Z,58.85
2022-11-16T00:48:22.499Z,61.33
2022-11-16T00:50:49.844Z,55.42
2022-11-16T00:53:19.220Z,60.80
2022-11-16T00:55:47.563Z,58.75
2022-11-16T00:58:15.640Z,58.90
2022-11-16T01:00:43.862Z,60.60
2022-11-16T01:03:11.824Z,56.50
2022-11-16T01:05:39.422Z,58.60
2022-11-16T01:08:08.010Z,63.72
2022-11-16T01:10:39.351Z,66.53
2022-11-16T01:13:07.031Z,57.80
2022-11-16T01:15:34.347Z,58.20
2022-11-16T01:18:01.927Z,64.10
2022-11-16T01:20:29.622Z,67.43
2022-11-16T01:22:57.014Z,57.40
2022-11-16T01:25:24.580Z,60.80
2022-11-16T01:27:51.967Z,57.38
2022-11-16T01:30:19.732Z,57.08
2022-11-16T01:32:48.118Z,56.63
2022-11-16T01:35:17.510Z,63.03
2022-11-16T01:37:45.038Z,61.03
2022-11-16T01:40:14.055Z,59.38
2022-11-16T01:42:42.170Z,55.30
2022-11-16T01:45:38.007Z,57.67
2022-11-16T01:48:06.318Z,54.55
2022-11-16T01:50:34.541Z,56.17
2022-11-16T01:53:04.234Z,61.47
2022-11-16T01:55:33.862Z,61.78
2022-11-16T01:58:02.615Z,57.62
2022-11-16T02:00:30.625Z,57.78
2022-11-16T02:02:58.814Z,53.05
2022-11-16T02:05:33.583Z,50.33
2022-11-16T02:08:33.668Z,59.70
2022-11-16T02:11:11.046Z,54.35
2022-11-16T02:14:20.764Z,53.90
2022-11-16T02:17:12.478Z,51.75
2022-11-16T02:20:14.489Z,56.50
2022-11-16T02:22:57.584Z,53.80
2022-11-16T02:25:37.467Z,53.30
2022-11-16T02:28:29.132Z,52.28
2022-11-16T02:30:58.025Z,52.60
2022-11-16T02:33:30.906Z,50.38
2022-11-16T02:36:00.654Z,51.45
2022-11-16T02:38:31.001Z,57.38
2022-11-16T02:41:05.202Z,47.50
2022-11-16T02:43:37.818Z,48.22
2022-11-16T02:46:09.713Z,51.28
2022-11-16T02:48:40.919Z,49.47
2022-11-16T02:51:09.047Z,50.03
2022-11-16T02:53:51.425Z,49.30
2022-11-16T02:56:20.273Z,52.60
2022-11-16T02:58:47.988Z,48.08
2022-11-16T03:01:25.588Z,50.55
2022-11-16T03:03:58.910Z,47.80
2022-11-16T03:06:32.384Z,47.55
2022-11-16T03:09:12.190Z,46.17
2022-11-16T03:12:01.321Z,45.38
2022-11-16T03:14:44.837Z,46.03
2022-11-16T03:17:22.004Z,49.38
2022-11-16T03:19:57.726Z,50.67
2022-11-16T03:22:31.620Z,45.88
2022-11-16T03:24:59.218Z,46.78
2022-11-16T03:27:47.367Z,46.90
2022-11-16T03:30:23.563Z,54.83
2022-11-16T03:33:04.533Z,50.12
2022-11-16T03:36:00.066Z,51.83
2022-11-16T03:38:28.619Z,53.40
2022-11-16T03:41:00.410Z,50.30
2022-11-16T03:43:28.651Z,51.22
2022-11-16T03:45:56.767Z,54.08
2022-11-16T03:48:24.470Z,53.13
2022-11-16T03:50:52.273Z,51.80
2022-11-16T03:53:20.402Z,50.22
2022-11-16T03:55:49.915Z,56.72
2022-11-16T03:58:18.609Z,55.50
2022-11-16T04:00:46.500Z,61.40
2022-11-16T04:03:14.131Z,63.97
2022-11-16T04:06:00.155Z,56.92
2022-11-16T04:08:46.177Z,60.05
2022-11-16T04:11:33.647Z,54.38
2022-11-16T04:14:19.698Z,57.80
2022-11-16T04:17:05.537Z,57.60
2022-11-16T04:19:56.784Z,56.17
2022-11-16T04:22:52.829Z,60.03
2022-11-16T04:25:27.111Z,59.63
2022-11-16T04:28:13.278Z,61.80
2022-11-16T04:31:01.206Z,59.70
2022-11-16T04:33:48.130Z,58.28
2022-11-16T04:36:34.586Z,77.37
2022-11-16T04:39:02.118Z,76.45
2022-11-16T04:41:49.315Z,60.30
2022-11-16T04:44:17.133Z,68.95
2022-11-16T04:47:04.046Z,67.03
2022-11-16T04:49:31.584Z,64.40
2022-11-16T04:51:59.778Z,64.82
2022-11-16T04:54:28.171Z,67.15
2022-11-16T04:56:55.532Z,67.28
2022-11-16T04:59:23.736Z,63.83
2022-11-16T05:02:09.221Z,68.55
2022-11-16T05:04:39.626Z,68.00
2022-11-16T05:07:11.834Z,67.72
2022-11-16T05:09:43.028Z,61.95
2022-11-16T05:12:22.664Z,77.70
2022-11-16T05:14:51.661Z,64.50
2022-11-16T05:17:19.604Z,71.95
2022-11-16T05:20:06.855Z,65.80
2022-11-16T05:22:35.461Z,63.42
2022-11-16T05:25:04.398Z,68.90
2022-11-16T05:27:32.007Z,70.82
2022-11-16T05:29:59.902Z,70.70
2022-11-16T05:32:27.794Z,68.22
2022-11-16T05:34:55.484Z,62.72
2022-11-16T05:37:26.559Z,60.28
2022-11-16T05:39:54.839Z,67.25
2022-11-16T05:42:23.258Z,110.07
2022-11-16T05:44:50.721Z,88.65
2022-11-16T05:47:18.309Z,59.70
2022-11-16T05:49:45.975Z,75.57
2022-11-16T05:52:14.252Z,65.20
2022-11-16T05:54:42.046Z,67.85
2022-11-16T05:57:09.772Z,70.47
2022-11-16T05:59:37.441Z,73.45
2022-11-16T06:02:05.458Z,69.03
2022-11-16T06:04:33.825Z,68.47
2022-11-16T06:07:01.524Z,64.30
2022-11-16T06:09:29.147Z,67.78
2022-11-16T06:11:58.848Z,69.72
2022-11-16T06:14:26.150Z,74.30
2022-11-16T06:16:53.746Z,70.97
2022-11-16T06:19:21.390Z,67.22
2022-11-16T06:21:48.677Z,74.70
2022-11-16T06:24:16.973Z,66.90
2022-11-16T06:26:45.932Z,67.05
2022-11-16T06:29:14.116Z,69.37
2022-11-16T06:31:41.660Z,73.28
2022-11-16T06:34:09.451Z,71.35
2022-11-16T06:36:36.817Z,69.00
2022-11-16T06:39:04.607Z,68.37
2022-11-16T06:41:37.573Z,71.12
2022-11-16T06:44:08.261Z,76.30
2022-11-16T06:46:36.216Z,71.05
2022-11-16T06:49:03.718Z,69.68
2022-11-16T06:51:31.112Z,75.87
2022-11-16T06:53:59.153Z,71.30
2022-11-16T06:56:27.813Z,67.35
2022-11-16T06:58:57.024Z,80.05
2022-11-16T07:01:25.108Z,77.55
2022-11-16T07:03:54.347Z,70.43
2022-11-16T07:06:21.863Z,71.80
2022-11-16T07:08:49.809Z,67.93
2022-11-16T07:11:18.152Z,69.30
2022-11-16T07:13:45.524Z,64.70
2022-11-16T07:16:13.967Z,75.12
2022-11-16T07:18:42.159Z,68.75
2022-11-16T07:21:14.594Z,67.82
2022-11-16T07:23:42.892Z,81.07
2022-11-16T07:26:11.634Z,68.18
2022-11-16T07:28:44.888Z,70.37
2022-11-16T07:31:16.985Z,79.37
2022-11-16T07:33:44.390Z,92.43
2022-11-16T07:36:15.943Z,69.20
2022-11-16T07:38:44.017Z,74.60
2022-11-16T07:41:17.229Z,71.40
2022-11-16T07:43:51.538Z,69.28
2022-11-16T07:46:46.442Z,67.62
2022-11-16T07:49:15.268Z,73.75
2022-11-16T07:51:43.598Z,77.03
2022-11-16T07:54:13.179Z,72.22
2022-11-16T07:56:40.594Z,74.72
2022-11-16T07:59:08.530Z,82.85
2022-11-16T08:01:37.208Z,73.82
2022-11-16T08:04:04.998Z,70.35
2022-11-16T08:06:32.606Z,73.80
2022-11-16T08:09:00.737Z,71.87
2022-11-16T08:11:28.551Z,71.90
2022-11-16T08:13:56.361Z,65.32
2022-11-16T08:16:23.732Z,68.32
2022-11-16T08:18:51.733Z,73.37
2022-11-16T08:21:19.763Z,70.03
2022-11-16T08:23:47.161Z,77.07
2022-11-16T08:26:19.446Z,71.03
2022-11-16T08:28:50.915Z,70.22
2022-11-16T08:31:22.214Z,72.18
2022-11-16T08:33:50.402Z,74.90
2022-11-16T08:36:18.297Z,81.93
2022-11-16T08:38:47.258Z,70.25
2022-11-16T08:41:15.947Z,69.95
2022-11-16T08:43:44.605Z,81.93
2022-11-16T08:46:13.647Z,66.72
2022-11-16T08:48:41.583Z,77.47
2022-11-16T08:51:17.931Z,77.65
2022-11-16T08:53:48.095Z,113.20
2022-11-16T08:56:17.179Z,73.00
2022-11-16T08:58:46.814Z,86.40
2022-11-16T09:01:17.560Z,71.65
2022-11-16T09:03:45.345Z,70.43
2022-11-16T09:06:13.017Z,78.45
2022-11-16T09:08:42.385Z,85.45
2022-11-16T09:11:11.945Z,72.32
2022-11-16T09:13:39.566Z,68.57
2022-11-16T09:16:07.502Z,71.47
2022-11-16T09:18:35.685Z,75.20
2022-11-16T09:21:03.796Z,75.85
2022-11-16T09:23:31.754Z,73.65
2022-11-16T09:26:03.742Z,80.22
2022-11-16T09:28:31.798Z,78.57
2022-11-16T09:31:05.943Z,79.20
2022-11-16T09:33:34.358Z,76.07
2022-11-16T09:36:07.128Z,80.97
2022-11-16T09:39:03.330Z,97.85
2022-11-16T09:41:42.101Z,78.95
2022-11-16T09:44:20.230Z,84.82
2022-11-16T09:46:50.306Z,82.05
2022-11-16T09:49:26.396Z,81.00
2022-11-16T09:52:00.668Z,74.05
2022-11-16T09:54:30.703Z,71.18
2022-11-16T09:57:00.558Z,78.32
2022-11-16T09:59:33.958Z,75.28
2022-11-16T10:02:09.785Z,71.28
2022-11-16T10:04:52.509Z,76.20
2022-11-16T10:07:45.084Z,74.70
2022-11-16T10:10:18.121Z,76.22
2022-11-16T10:13:03.462Z,73.75
2022-11-16T10:15:49.121Z,83.03
2022-11-16T10:18:46.292Z,78.00
2022-11-16T10:21:37.188Z,75.70
2022-11-16T10:24:16.546Z,78.22
2022-11-16T10:27:03.259Z,78.28
2022-11-16T10:29:33.679Z,75.72
2022-11-16T10:32:28.015Z,69.65
2022-11-16T10:35:00.339Z,74.87
2022-11-16T10:39:56.693Z,73.72
2022-11-16T10:42:36.921Z,73.60
2022-11-16T10:45:10.617Z,74.82
2022-11-16T10:47:46.668Z,71.87
2022-11-16T10:50:35.255Z,72.10
2022-11-16T10:53:02.564Z,77.62
2022-11-16T10:55:30.511Z,62.58
2022-11-16T10:58:02.811Z,66.53
2022-11-16T11:00:36.860Z,69.50
2022-11-16T11:03:04.255Z,71.20
2022-11-16T11:05:32.023Z,73.75
2022-11-16T11:08:02.236Z,72.57
2022-11-16T11:10:33.605Z,78.57
2022-11-16T11:13:21.404Z,76.18
2022-11-16T11:15:51.180Z,72.32
2022-11-16T11:18:20.194Z,77.62
2022-11-16T11:20:53.062Z,77.37
2022-11-16T11:23:23.014Z,78.15
2022-11-16T11:25:59.242Z,74.82
2022-11-16T11:28:35.291Z,78.95
2022-11-16T11:31:03.967Z,73.87
2022-11-16T11:33:37.800Z,70.32
2022-11-16T11:36:09.576Z,74.03
2022-11-16T11:38:56.544Z,75.15
2022-11-16T11:41:23.966Z,67.93
2022-11-16T11:44:06.064Z,73.22
2022-11-16T11:47:11.003Z,75.40
2022-11-16T11:49:33.293Z,71.55
2022-11-16T11:52:10.527Z,67.32
2022-11-16T11:54:45.673Z,67.43
2022-11-16T11:57:22.976Z,71.35
2022-11-16T11:59:53.118Z,66.55
2022-11-16T12:02:45.962Z,64.95
2022-11-16T12:05:45.702Z,61.50
2022-11-16T12:08:31.675Z,65.30
2022-11-16T12:11:04.270Z,57.95
2022-11-16T12:16:45.711Z,57.53
2022-11-16T12:19:34.178Z,66.95
2022-11-16T12:22:23.334Z,60.28
2022-11-16T12:25:06.002Z,57.62
2022-11-16T12:27:42.945Z,61.15
2022-11-16T12:30:15.072Z,60.47
2022-11-16T12:35:27.864Z,53.50
2022-11-16T12:38:19.467Z,54.63
2022-11-16T12:41:04.454Z,54.10
2022-11-16T12:43:47.246Z,55.25
2022-11-16T12:49:06.899Z,58.25
2022-11-16T12:51:55.994Z,52.33
2022-11-16T12:54:52.241Z,49.47
2022-11-16T12:57:39.286Z,50.47
2022-11-16T13:00:10.651Z,57.38
2022-11-16T13:02:59.982Z,48.87
2022-11-16T13:05:42.664Z,45.35
2022-11-16T13:11:08.383Z,43.60
2022-11-16T13:13:37.295Z,44.33
2022-11-16T13:16:05.570Z,44.38
2022-11-16T13:18:35.751Z,44.38
2022-11-16T13:21:11.297Z,41.53
2022-11-16T13:23:47.875Z,41.15
2022-11-16T13:26:51.976Z,45.25
2022-11-16T13:29:51.090Z,37.42
2022-11-16T13:32:24.159Z,47.00
2022-11-16T13:34:52.050Z,40.38
2022-11-16T13:37:34.269Z,37.45
2022-11-16T13:42:30.153Z,34.95
2022-11-16T13:45:09.521Z,31.80
2022-11-16T13:47:37.270Z,29.65
2022-11-16T13:50:06.922Z,30.50
2022-11-16T13:53:23.492Z,29.00
2022-11-16T13:55:32.556Z,26.42
2022-11-16T13:58:01.550Z,27.95
2022-11-16T14:00:35.383Z,28.00
2022-11-16T14:03:12.126Z,26.23
2022-11-16T14:05:44.840Z,27.30
2022-11-16T14:08:24.238Z,27.90
2022-11-16T14:10:51.633Z,23.08
2022-11-16T14:13:39.621Z,53.72
2022-11-16T14:16:22.419Z,29.12
2022-11-16T14:18:56.529Z,27.98
2022-11-16T14:21:39.187Z,29.80
2022-11-16T14:24:25.792Z,26.85
2022-11-16T14:27:30.654Z,27.77
2022-11-16T14:30:09.176Z,28.33
2022-11-16T14:32:44.393Z,25.30
2022-11-16T14:35:32.653Z,23.73
2022-11-16T14:38:06.762Z,26.92
2022-11-16T14:40:56.257Z,28.17
2022-11-16T14:43:34.717Z,24.30
2022-11-16T14:46:05.190Z,26.73
2022-11-16T14:48:32.732Z,22.45
2022-11-16T14:51:13.305Z,24.60
2022-11-16T14:53:46.446Z,27.45
2022-11-16T14:56:15.392Z,26.52
2022-11-16T14:58:56.705Z,24.85
2022-11-16T15:01:31.152Z,23.92
2022-11-16T15:04:02.474Z,25.75
2022-11-16T15:06:39.142Z,25.35
2022-11-16T15:09:06.782Z,26.37
2022-11-16T15:11:56.815Z,28.60
2022-11-16T15:14:27.295Z,26.37
2022-11-16T15:16:56.291Z,25.98
2022-11-16T15:19:24.498Z,23.75
2022-11-16T15:21:57.102Z,25.85
2022-11-16T15:24:32.641Z,25.37
2022-11-16T15:27:28.858Z,26.45
2022-11-16T15:29:56.462Z,27.58
2022-11-16T15:32:23.814Z,30.25
2022-11-16T15:34:53.583Z,29.25
2022-11-16T15:37:31.331Z,25.98
2022-11-16T15:39:59.055Z,26.95
2022-11-16T15:42:27.978Z,25.02
2022-11-16T15:44:55.838Z,25.00
2022-11-16T15:47:23.309Z,20.58
2022-11-16T15:49:52.946Z,19.40
2022-11-16T15:52:43.442Z,22.08
2022-11-16T15:55:34.645Z,21.10
2022-11-16T15:58:05.383Z,19.85
2022-11-16T16:00:35.360Z,19.27
2022-11-16T16:03:16.099Z,20.00
2022-11-16T16:05:43.402Z,18.25
2022-11-16T16:08:36.804Z,17.35
2022-11-16T16:11:33.027Z,17.52
2022-11-16T16:14:02.864Z,17.40
2022-11-16T16:16:37.758Z,20.98
2022-11-16T16:19:09.905Z,18.58
2022-11-16T16:21:43.182Z,18.50
2022-11-16T16:24:33.577Z,24.77
2022-11-16T16:27:00.898Z,24.50
2022-11-16T16:29:28.568Z,19.60
2022-11-16T16:31:56.143Z,23.33
2022-11-16T16:34:23.441Z,20.88
2022-11-16T16:36:51.005Z,23.80
2022-11-16T16:39:18.296Z,30.00
2022-11-16T16:41:45.852Z,28.20
2022-11-16T16:44:15.167Z,29.95
2022-11-16T16:46:42.464Z,30.85
2022-11-16T16:49:10.731Z,24.37
2022-11-16T16:51:38.282Z,22.90
2022-11-16T16:54:05.678Z,23.75
2022-11-16T16:56:32.962Z,27.17
2022-11-16T16:59:02.780Z,25.52
2022-11-16T17:01:31.790Z,25.42
2022-11-16T17:03:59.125Z,27.17
2022-11-16T17:06:26.742Z,24.27
2022-11-16T17:08:54.010Z,21.98
2022-11-16T17:11:21.296Z,22.45
2022-11-16T17:13:48.853Z,19.67
2022-11-16T17:16:16.326Z,23.42
2022-11-16T17:18:44.718Z,23.05
2022-11-16T17:21:12.918Z,23.55
2022-11-16T17:23:40.382Z,22.00
2022-11-16T17:26:08.582Z,19.33
2022-11-16T17:28:36.140Z,21.30
2022-11-16T17:31:06.040Z,19.27
2022-11-16T17:33:37.824Z,20.90
2022-11-16T17:36:07.304Z,19.27
2022-11-16T17:38:34.862Z,20.02
2022-11-16T17:41:04.000Z,17.50
2022-11-16T17:43:31.772Z,16.15
2022-11-16T17:46:07.370Z,17.65
2022-11-16T17:48:35.469Z,14.15
2022-11-16T17:51:02.802Z,15.10
2022-11-16T17:53:32.879Z,17.42
2022-11-16T17:56:01.096Z,14.80
2022-11-16T17:58:29.191Z,16.65
2022-11-16T18:00:56.930Z,19.50
2022-11-16T18:03:24.549Z,19.40
2022-11-16T18:05:52.137Z,21.15
2022-11-16T18:08:19.416Z,14.25
2022-11-16T18:10:47.025Z,15.05
2022-11-16T18:13:14.308Z,14.45
2022-11-16T18:15:42.670Z,16.95
2022-11-16T18:18:10.367Z,17.60
2022-11-16T18:20:37.874Z,16.98
2022-11-16T18:23:05.196Z,16.55
2022-11-16T18:25:35.019Z,16.90
2022-11-16T18:28:02.521Z,19.05
2022-11-16T18:30:29.816Z,24.95
2022-11-16T18:32:57.447Z,38.90
2022-11-16T18:35:24.845Z,36.75
2022-11-16T18:37:52.174Z,45.33
2022-11-16T18:40:19.736Z,41.83
2022-11-16T18:42:47.507Z,35.13
2022-11-16T18:45:14.795Z,37.28
2022-11-16T18:47:42.333Z,27.95
2022-11-16T18:50:18.224Z,22.42
2022-11-16T18:52:47.917Z,26.85
2022-11-16T18:55:15.245Z,22.23
2022-11-16T18:57:42.549Z,22.40
2022-11-16T19:00:10.687Z,25.05
2022-11-16T19:02:38.887Z,26.48
2022-11-16T19:05:07.467Z,28.20
2022-11-16T19:07:35.052Z,25.70
2022-11-16T19:10:02.578Z,26.83
2022-11-16T19:12:29.943Z,25.83
2022-11-16T19:14:57.622Z,28.73
2022-11-16T19:17:25.178Z,21.05
2022-11-16T19:19:52.681Z,22.77
2022-11-16T19:22:20.534Z,20.55
2022-11-16T19:24:47.829Z,19.80
2022-11-16T19:27:16.620Z,18.00
2022-11-16T19:29:44.219Z,21.35
2022-11-16T19:32:13.727Z,19.25
2022-11-16T19:34:41.050Z,20.05
2022-11-16T19:37:08.761Z,19.70
2022-11-16T19:39:36.071Z,16.33
2022-11-16T19:42:03.473Z,21.85
2022-11-16T19:44:31.038Z,16.25
2022-11-16T19:46:59.278Z,17.98
2022-11-16T19:49:26.583Z,18.35
2022-11-16T19:51:54.201Z,15.18
2022-11-16T19:54:21.496Z,17.10
2022-11-16T19:56:54.691Z,16.33
2022-11-16T19:59:22.694Z,16.35
2022-11-16T20:01:49.979Z,17.23
2022-11-16T20:04:17.520Z,17.85
2022-11-16T20:06:44.903Z,18.30
2022-11-16T20:09:12.480Z,18.98
2022-11-16T20:11:41.134Z,17.27
2022-11-16T20:14:10.511Z,18.05
2022-11-16T20:16:40.432Z,17.70
2022-11-16T20:19:08.880Z,17.85
2022-11-16T20:21:38.324Z,17.35
2022-11-16T20:24:08.583Z,22.13
2022-11-16T20:26:40.155Z,18.75
2022-11-16T20:29:07.450Z,17.33
2022-11-16T20:31:34.758Z,21.50
2022-11-16T20:34:05.006Z,19.60
2022-11-16T20:36:33.200Z,20.98
2022-11-16T20:39:00.948Z,21.10
2022-11-16T20:41:33.075Z,23.08
2022-11-16T20:44:01.783Z,21.17
2022-11-16T20:46:31.341Z,20.73
2022-11-16T20:49:00.839Z,25.37
2022-11-16T20:51:28.732Z,25.17
2022-11-16T20:53:56.295Z,18.98
2022-11-16T20:56:23.779Z,21.02
2022-11-16T20:58:51.149Z,21.67
2022-11-16T21:01:28.438Z,23.90
2022-11-16T21:03:56.571Z,22.87
2022-11-16T21:06:24.459Z,23.10
2022-11-16T21:08:52.080Z,23.05
2022-11-16T21:11:25.084Z,25.08
2022-11-16T21:14:11.480Z,27.25
2022-11-16T21:16:39.043Z,29.20
2022-11-16T21:19:07.048Z,30.23
2022-11-16T21:21:34.633Z,31.48
2022-11-16T21:24:01.950Z,32.45
2022-11-16T21:26:32.967Z,34.80
2022-11-16T21:29:01.431Z,33.70
2022-11-16T21:31:30.929Z,35.90
2022-11-16T21:34:00.715Z,36.38
2022-11-16T21:36:29.852Z,36.38
2022-11-16T21:38:58.068Z,37.10
2022-11-16T21:41:26.188Z,35.55
2022-11-16T21:43:53.662Z,41.05
2022-11-16T21:46:23.114Z,40.00
2022-11-16T21:48:51.039Z,36.63
2022-11-16T21:51:20.881Z,37.55
2022-11-16T21:53:48.440Z,37.97
2022-11-16T21:56:19.234Z,38.55
2022-11-16T21:58:46.958Z,37.83
2022-11-16T22:01:16.049Z,41.05
2022-11-16T22:03:44.792Z,37.35
2022-11-16T22:06:34.619Z,39.25
2022-11-16T22:09:02.238Z,36.30
2022-11-16T22:11:29.533Z,37.13
2022-11-16T22:13:56.819Z,38.35
2022-11-16T22:16:24.372Z,38.47
2022-11-16T22:18:51.668Z,40.33
2022-11-16T22:21:18.948Z,38.17
2022-11-16T22:23:46.593Z,37.90
2022-11-16T22:26:14.528Z,36.67
2022-11-16T22:28:42.114Z,45.45
2022-11-16T22:31:14.531Z,41.53
2022-11-16T22:33:42.209Z,37.70
2022-11-16T22:36:10.549Z,37.78
2022-11-16T22:38:38.038Z,39.78
2022-11-16T22:41:05.475Z,38.65
2022-11-16T22:43:33.497Z,43.42
2022-11-16T22:46:02.733Z,38.58
2022-11-16T22:48:35.465Z,39.70
2022-11-16T22:51:05.052Z,37.17
2022-11-16T22:53:32.694Z,38.45
2022-11-16T22:56:18.118Z,39.55
2022-11-16T22:58:45.678Z,38.80
2022-11-16T23:01:13.043Z,32.33
2022-11-16T23:03:40.824Z,35.50
2022-11-16T23:06:08.619Z,31.87
2022-11-16T23:08:37.009Z,33.08
2022-11-16T23:11:28.859Z,32.65
2022-11-16T23:14:15.246Z,31.45
2022-11-16T23:16:44.008Z,33.20
2022-11-16T23:19:32.252Z,29.42
2022-11-16T23:22:18.303Z,32.95
2022-11-16T23:25:04.344Z,32.35
2022-11-16T23:27:39.614Z,29.27
2022-11-16T23:30:12.504Z,34.13
2022-11-16T23:32:41.559Z,33.35
2022-11-16T23:35:10.610Z,33.80
2022-11-16T23:37:57.117Z,30.88
2022-11-16T23:40:29.859Z,32.63
2022-11-16T23:43:15.750Z,35.67
2022-11-16T23:45:44.048Z,33.25
2022-11-16T23:48:15.090Z,29.52
2022-11-16T23:50:43.404Z,33.47
2022-11-16T23:53:11.477Z,34.85
2022-11-16T23:55:39.709Z,32.95
2022-11-16T23:58:12.241Z,33.05
